Hines Creek, Canada
Current Conditions -  °F | °C
As of 11:00 PM on Wednesday 22 Oct 2014 (Local Time) from CYPE Reporting Station
Clear Clear  
Wind Chill: 23°   Ceiling: Unl
Heat Index: 28°   Visibility: 15mi
Dew Point: 27°   Wind: 5mph
Humidity: 93%   Direction: 20°NNE
Pressure: 29.54"   Gusts: NA
Location:  56.23°N, 118.6°W
Report Text: CYPE 230500Z 02004KT 15SM SKC M02/M03 A2954 RMK SLP026
Loading
Personal Weather Stations






























Interactive Weather Map New forecast layout! Learn more

10-Day Weather Forecast

Advertisements
Track Severe Weather on mobile